Time,TemperatureF,DewpointF,PressureIn,WindDirection,WindDirectionDegrees,WindSpeedMPH,WindSpeedGustMPH,Humidity,HourlyPrecipIn,Conditions,Clouds,dailyrainin,SoftwareType,DateUTC
2013-02-14 00:00:00,31.4,28.5,29.93,SW,219,1.0,1.0,89,0.00,,,0.00,Wunderground v.1.15,2013-02-14 05:00:00,
2013-02-14 00:01:00,31.4,28.5,29.94,SW,217,1.0,1.0,89,0.00,,,0.00,Wunderground v.1.15,2013-02-14 05:01:00,
2013-02-14 00:06:00,31.3,28.4,29.94,SW,223,1.0,1.0,89,0.00,,,0.00,Wunderground v.1.15,2013-02-14 05:06:00,
2013-02-14 00:12:00,31.1,28.2,29.94,WSW,238,1.0,2.0,89,0.00,,,0.00,Wunderground v.1.15,2013-02-14 05:12:00,
2013-02-14 00:17:00,31.1,28.2,29.94,WSW,238,1.0,4.0,89,0.00,,,0.00,Wunderground v.1.15,2013-02-14 05:17:00,
2013-02-14 00:23:00,31.2,28.6,29.94,SSW,209,3.0,3.0,90,0.00,,,0.00,Wunderground v.1.15,2013-02-14 05:23:00,
2013-02-14 00:28:00,31.2,28.6,29.94,SSW,209,2.0,4.0,90,0.00,,,0.00,Wunderground v.1.15,2013-02-14 05:28:00,
2013-02-14 00:34:00,31.3,28.7,29.95,SSW,207,1.0,4.0,90,0.00,,,0.00,Wunderground v.1.15,2013-02-14 05:34:00,
2013-02-14 00:39:00,31.3,28.7,29.95,SW,227,2.0,4.0,90,0.00,,,0.00,Wunderground v.1.15,2013-02-14 05:39:00,
2013-02-14 00:45:00,31.3,28.7,29.95,SSW,213,3.0,4.0,90,0.00,,,0.00,Wunderground v.1.15,2013-02-14 05:45:00,
2013-02-14 00:50:00,31.2,28.6,29.95,SSW,213,3.0,3.0,90,0.00,,,0.00,Wunderground v.1.15,2013-02-14 05:50:00,
2013-02-14 00:56:00,31.2,28.6,29.95,SSW,210,0.0,3.0,90,0.00,,,0.00,Wunderground v.1.15,2013-02-14 05:56:00,
2013-02-14 01:02:00,31.1,28.5,29.95,SSW,212,4.0,4.0,90,0.00,,,0.00,Wunderground v.1.15,2013-02-14 06:02:00,
2013-02-14 01:07:00,31.2,28.6,29.95,SSW,207,3.0,4.0,90,0.00,,,0.00,Wunderground v.1.15,2013-02-14 06:07:00,
2013-02-14 01:13:00,31.4,28.8,29.95,SW,223,5.0,5.0,90,0.00,,,0.00,Wunderground v.1.15,2013-02-14 06:13:00,
2013-02-14 01:19:00,31.4,28.8,29.95,SSW,213,2.0,5.0,90,0.00,,,0.00,Wunderground v.1.15,2013-02-14 06:19:00,
2013-02-14 01:24:00,31.5,28.9,29.95,SW,236,5.0,5.0,90,0.00,,,0.00,Wunderground v.1.15,2013-02-14 06:24:00,
2013-02-14 01:31:00,31.6,29.0,29.95,SW,224,3.0,3.0,90,0.00,,,0.00,Wunderground v.1.15,2013-02-14 06:31:00,
2013-02-14 01:36:00,31.7,29.1,29.95,SSW,202,6.0,6.0,90,0.00,,,0.00,Wunderground v.1.15,2013-02-14 06:36:00,
2013-02-14 01:41:00,31.8,29.2,29.95,SSW,209,3.0,4.0,90,0.00,,,0.00,Wunderground v.1.15,2013-02-14 06:41:00,
2013-02-14 01:47:00,31.8,29.2,29.95,SSW,205,2.0,4.0,90,0.00,,,0.00,Wunderground v.1.15,2013-02-14 06:47:00,
2013-02-14 01:52:00,31.6,29.0,29.95,SSW,213,4.0,5.0,90,0.00,,,0.00,Wunderground v.1.15,2013-02-14 06:52:00,
2013-02-14 01:58:00,31.4,28.8,29.95,SSW,196,4.0,5.0,90,0.00,,,0.00,Wunderground v.1.15,2013-02-14 06:58:00,
2013-02-14 02:03:00,31.4,29.1,29.95,SSW,207,3.0,7.0,91,0.00,,,0.00,Wunderground v.1.15,2013-02-14 07:03:00,
2013-02-14 02:08:00,31.3,29.0,29.95,SSW,200,3.0,7.0,91,0.00,,,0.00,Wunderground v.1.15,2013-02-14 07:08:00,
2013-02-14 02:14:00,31.1,28.8,29.95,SSW,207,4.0,5.0,91,0.00,,,0.00,Wunderground v.1.15,2013-02-14 07:14:00,
2013-02-14 02:19:00,31.1,28.8,29.95,SSW,204,3.0,5.0,91,0.00,,,0.00,Wunderground v.1.15,2013-02-14 07:19:00,
2013-02-14 02:24:00,31.0,28.7,29.95,SW,227,4.0,4.0,91,0.00,,,0.00,Wunderground v.1.15,2013-02-14 07:24:00,
2013-02-14 02:29:00,31.0,28.7,29.95,SSW,208,3.0,6.0,91,0.00,,,0.00,Wunderground v.1.15,2013-02-14 07:29:00,
2013-02-14 02:34:00,31.0,28.9,29.95,SSW,197,4.0,6.0,92,0.00,,,0.00,Wunderground v.1.15,2013-02-14 07:34:00,
2013-02-14 02:39:00,31.2,29.1,29.95,SSW,211,6.0,6.0,92,0.00,,,0.00,Wunderground v.1.15,2013-02-14 07:39:00,
2013-02-14 02:44:00,31.3,29.2,29.95,SW,214,3.0,6.0,92,0.00,,,0.00,Wunderground v.1.15,2013-02-14 07:44:00,
2013-02-14 02:50:00,31.5,29.4,29.95,SSW,201,1.0,4.0,92,0.00,,,0.00,Wunderground v.1.15,2013-02-14 07:50:00,
2013-02-14 02:55:00,31.5,29.4,29.95,SSW,195,6.0,8.0,92,0.00,,,0.00,Wunderground v.1.15,2013-02-14 07:55:00,
2013-02-14 03:00:00,31.6,29.5,29.95,SW,216,3.0,5.0,92,0.00,,,0.00,Wunderground v.1.15,2013-02-14 08:00:00,
2013-02-14 03:05:00,31.6,29.5,29.95,South,188,6.0,7.0,92,0.00,,,0.00,Wunderground v.1.15,2013-02-14 08:05:00,
2013-02-14 03:10:00,31.5,29.4,29.94,SSW,211,7.0,7.0,92,0.00,,,0.00,Wunderground v.1.15,2013-02-14 08:10:00,
2013-02-14 03:15:00,31.7,29.6,29.95,South,182,4.0,8.0,92,0.00,,,0.00,Wunderground v.1.15,2013-02-14 08:15:00,
2013-02-14 03:20:00,31.7,29.6,29.94,South,185,5.0,6.0,92,0.00,,,0.00,Wunderground v.1.15,2013-02-14 08:20:00,
2013-02-14 03:25:00,31.7,29.6,29.94,SSW,203,6.0,7.0,92,0.00,,,0.00,Wunderground v.1.15,2013-02-14 08:25:00,
2013-02-14 03:30:00,31.7,29.6,29.94,SW,217,4.0,7.0,92,0.00,,,0.00,Wunderground v.1.15,2013-02-14 08:30:00,
2013-02-14 03:35:00,31.7,29.6,29.94,SW,225,5.0,8.0,92,0.00,,,0.00,Wunderground v.1.15,2013-02-14 08:35:00,
2013-02-14 03:41:00,31.7,29.6,29.94,SSW,205,4.0,7.0,92,0.00,,,0.00,Wunderground v.1.15,2013-02-14 08:41:00,
2013-02-14 03:46:00,31.5,29.4,29.94,SSW,202,4.0,7.0,92,0.00,,,0.00,Wunderground v.1.15,2013-02-14 08:46:00,
2013-02-14 03:51:00,31.3,29.2,29.94,SSW,195,5.0,7.0,92,0.00,,,0.00,Wunderground v.1.15,2013-02-14 08:51:00,
2013-02-14 03:56:00,31.0,28.9,29.94,SSW,205,5.0,7.0,92,0.00,,,0.00,Wunderground v.1.15,2013-02-14 08:56:00,
2013-02-14 04:01:00,30.9,28.9,29.94,SSW,208,4.0,7.0,92,0.00,,,0.00,Wunderground v.1.15,2013-02-14 09:01:00,
2013-02-14 04:06:00,30.7,28.7,29.93,SSW,203,4.0,7.0,92,0.00,,,0.00,Wunderground v.1.15,2013-02-14 09:06:00,
2013-02-14 04:11:00,30.6,28.6,29.93,SW,217,3.0,5.0,92,0.00,,,0.00,Wunderground v.1.15,2013-02-14 09:11:00,
2013-02-14 04:17:00,30.5,28.5,29.93,SSW,205,2.0,6.0,92,0.00,,,0.00,Wunderground v.1.15,2013-02-14 09:17:00,
2013-02-14 04:22:00,30.4,28.6,29.93,SSW,213,5.0,6.0,93,0.00,,,0.00,Wunderground v.1.15,2013-02-14 09:22:00,
2013-02-14 04:27:00,30.3,28.5,29.93,SSW,205,6.0,6.0,93,0.00,,,0.00,Wunderground v.1.15,2013-02-14 09:27:00,
2013-02-14 04:32:00,30.3,28.5,29.93,SSW,211,2.0,5.0,93,0.00,,,0.00,Wunderground v.1.15,2013-02-14 09:32:00,
2013-02-14 04:37:00,30.2,28.4,29.93,SSW,213,3.0,5.0,93,0.00,,,0.00,Wunderground v.1.15,2013-02-14 09:37:00,
2013-02-14 04:42:00,30.4,28.6,29.94,SSW,203,3.0,6.0,93,0.00,,,0.00,Wunderground v.1.15,2013-02-14 09:42:00,
2013-02-14 04:48:00,30.7,28.9,29.94,SW,227,5.0,6.0,93,0.00,,,0.00,Wunderground v.1.15,2013-02-14 09:48:00,
2013-02-14 04:53:00,31.0,29.5,29.94,SSW,213,4.0,6.0,94,0.00,,,0.00,Wunderground v.1.15,2013-02-14 09:53:00,
2013-02-14 04:58:00,31.3,29.8,29.94,SW,220,1.0,9.0,94,0.00,,,0.00,Wunderground v.1.15,2013-02-14 09:58:00,
2013-02-14 05:03:00,31.6,30.1,29.94,SSW,193,5.0,6.0,94,0.00,,,0.00,Wunderground v.1.15,2013-02-14 10:03:00,
2013-02-14 05:08:00,31.9,30.4,29.94,SSW,200,3.0,7.0,94,0.00,,,0.00,Wunderground v.1.15,2013-02-14 10:08:00,
2013-02-14 05:13:00,32.2,30.7,29.94,SW,232,8.0,8.0,94,0.00,,,0.00,Wunderground v.1.15,2013-02-14 10:13:00,
2013-02-14 05:18:00,32.5,31.0,29.94,SSW,213,5.0,9.0,94,0.00,,,0.00,Wunderground v.1.15,2013-02-14 10:18:00,
2013-02-14 05:23:00,32.6,31.1,29.94,WSW,237,4.0,7.0,94,0.00,,,0.00,Wunderground v.1.15,2013-02-14 10:23:00,
2013-02-14 05:29:00,32.8,31.3,29.94,South,185,6.0,7.0,94,0.00,,,0.00,Wunderground v.1.15,2013-02-14 10:29:00,
2013-02-14 05:34:00,32.9,31.4,29.94,SW,219,3.0,8.0,94,0.00,,,0.00,Wunderground v.1.15,2013-02-14 10:34:00,
2013-02-14 05:39:00,33.0,31.5,29.93,SSW,211,4.0,8.0,94,0.00,,,0.00,Wunderground v.1.15,2013-02-14 10:39:00,
2013-02-14 05:44:00,33.0,31.5,29.94,SSW,198,4.0,6.0,94,0.00,,,0.00,Wunderground v.1.15,2013-02-14 10:44:00,
2013-02-14 05:49:00,33.1,31.6,29.94,WSW,257,3.0,7.0,94,0.00,,,0.00,Wunderground v.1.15,2013-02-14 10:49:00,
2013-02-14 05:54:00,33.2,31.7,29.94,SSW,212,2.0,10.0,94,0.00,,,0.00,Wunderground v.1.15,2013-02-14 10:54:00,
2013-02-14 06:00:00,33.3,31.8,29.93,SSW,209,3.0,4.0,94,0.00,,,0.00,Wunderground v.1.15,2013-02-14 11:00:00,
2013-02-14 06:05:00,33.3,31.8,29.93,SW,217,2.0,8.0,94,0.00,,,0.00,Wunderground v.1.15,2013-02-14 11:05:00,
2013-02-14 06:10:00,33.3,31.8,29.93,SSW,198,2.0,3.0,94,0.00,,,0.00,Wunderground v.1.15,2013-02-14 11:10:00,
2013-02-14 06:15:00,33.3,31.8,29.93,SSW,209,5.0,6.0,94,0.00,,,0.00,Wunderground v.1.15,2013-02-14 11:15:00,
2013-02-14 06:20:00,33.3,31.8,29.93,SSW,213,3.0,3.0,94,0.00,,,0.00,Wunderground v.1.15,2013-02-14 11:20:00,
2013-02-14 06:25:00,33.4,31.9,29.93,SSW,210,4.0,6.0,94,0.00,,,0.00,Wunderground v.1.15,2013-02-14 11:25:00,
2013-02-14 06:30:00,33.4,31.9,29.93,SW,227,2.0,4.0,94,0.00,,,0.00,Wunderground v.1.15,2013-02-14 11:30:00,
2013-02-14 06:35:00,33.3,31.8,29.92,SSW,202,7.0,7.0,94,0.00,,,0.00,Wunderground v.1.15,2013-02-14 11:35:00,
2013-02-14 06:40:00,33.3,31.8,29.93,SSW,199,7.0,7.0,94,0.00,,,0.00,Wunderground v.1.15,2013-02-14 11:40:00,
2013-02-14 06:45:00,33.2,31.7,29.93,SSW,207,2.0,7.0,94,0.00,,,0.00,Wunderground v.1.15,2013-02-14 11:45:00,
2013-02-14 06:50:00,33.2,31.7,29.93,SSW,209,3.0,7.0,94,0.00,,,0.00,Wunderground v.1.15,2013-02-14 11:50:00,
2013-02-14 06:55:00,33.2,31.7,29.93,SSW,205,4.0,7.0,94,0.00,,,0.00,Wunderground v.1.15,2013-02-14 11:55:00,
2013-02-14 07:00:00,33.2,31.7,29.93,SW,218,3.0,4.0,94,0.00,,,0.00,Wunderground v.1.15,2013-02-14 12:00:00,
2013-02-14 07:05:00,33.2,31.7,29.93,SSW,212,2.0,4.0,94,0.00,,,0.00,Wunderground v.1.15,2013-02-14 12:05:00,
2013-02-14 07:10:00,33.2,31.7,29.94,SW,217,1.0,3.0,94,0.00,,,0.00,Wunderground v.1.15,2013-02-14 12:10:00,
2013-02-14 07:15:00,33.2,31.7,29.94,WSW,246,2.0,6.0,94,0.00,,,0.00,Wunderground v.1.15,2013-02-14 12:15:00,
2013-02-14 07:20:00,33.2,31.7,29.94,West,267,4.0,4.0,94,0.00,,,0.00,Wunderground v.1.15,2013-02-14 12:20:00,
2013-02-14 07:25:00,33.3,31.8,29.94,SW,229,1.0,6.0,94,0.00,,,0.00,Wunderground v.1.15,2013-02-14 12:25:00,
2013-02-14 07:30:00,33.3,31.8,29.94,SSW,210,3.0,4.0,94,0.00,,,0.00,Wunderground v.1.15,2013-02-14 12:30:00,
2013-02-14 07:35:00,33.3,31.8,29.94,SSW,196,3.0,4.0,94,0.00,,,0.00,Wunderground v.1.15,2013-02-14 12:35:00,
2013-02-14 07:40:00,33.3,31.8,29.94,SSW,207,2.0,4.0,94,0.00,,,0.00,Wunderground v.1.15,2013-02-14 12:40:00,
2013-02-14 07:45:00,33.3,31.8,29.94,SSW,212,1.0,4.0,94,0.00,,,0.00,Wunderground v.1.15,2013-02-14 12:45:00,
2013-02-14 07:50:00,33.4,31.9,29.95,SSW,211,4.0,4.0,94,0.00,,,0.00,Wunderground v.1.15,2013-02-14 12:50:00,
2013-02-14 07:56:00,33.4,31.9,29.95,SW,215,1.0,4.0,94,0.00,,,0.00,Wunderground v.1.15,2013-02-14 12:56:00,
2013-02-14 08:01:00,33.5,32.0,29.95,SSW,213,0.0,2.0,94,0.00,,,0.00,Wunderground v.1.15,2013-02-14 13:01:00,
2013-02-14 08:06:00,33.5,32.0,29.95,SW,227,0.0,5.0,94,0.00,,,0.00,Wunderground v.1.15,2013-02-14 13:06:00,
2013-02-14 08:11:00,33.5,32.0,29.95,SW,232,2.0,4.0,94,0.00,,,0.00,Wunderground v.1.15,2013-02-14 13:11:00,
2013-02-14 08:16:00,33.6,32.3,29.95,SW,233,0.0,4.0,95,0.00,,,0.00,Wunderground v.1.15,2013-02-14 13:16:00,
2013-02-14 08:21:00,33.7,32.4,29.95,SSW,195,4.0,4.0,95,0.00,,,0.00,Wunderground v.1.15,2013-02-14 13:21:00,
2013-02-14 08:26:00,33.7,32.4,29.95,SW,223,4.0,4.0,95,0.00,,,0.00,Wunderground v.1.15,2013-02-14 13:26:00,
2013-02-14 08:31:00,33.8,32.5,29.95,SSW,204,2.0,3.0,95,0.00,,,0.00,Wunderground v.1.15,2013-02-14 13:31:00,
2013-02-14 08:36:00,33.8,32.3,29.95,SSW,204,2.0,5.0,94,0.00,,,0.00,Wunderground v.1.15,2013-02-14 13:36:00,
2013-02-14 08:42:00,33.9,32.6,29.95,SSW,204,2.0,3.0,95,0.00,,,0.00,Wunderground v.1.15,2013-02-14 13:42:00,
2013-02-14 08:47:00,34.0,32.7,29.95,SSW,202,5.0,5.0,95,0.00,,,0.00,Wunderground v.1.15,2013-02-14 13:47:00,
2013-02-14 08:52:00,34.0,32.7,29.95,SSW,204,3.0,7.0,95,0.00,,,0.00,Wunderground v.1.15,2013-02-14 13:52:00,
2013-02-14 08:57:00,34.1,32.8,29.95,SSW,207,2.0,7.0,95,0.00,,,0.00,Wunderground v.1.15,2013-02-14 13:57:00,
2013-02-14 09:03:00,34.2,32.9,29.95,SSW,205,2.0,4.0,95,0.00,,,0.00,Wunderground v.1.15,2013-02-14 14:03:00,
2013-02-14 09:08:00,34.3,33.0,29.95,SW,228,2.0,5.0,95,0.00,,,0.00,Wunderground v.1.15,2013-02-14 14:08:00,
2013-02-14 09:13:00,34.4,33.1,29.95,SSW,198,3.0,5.0,95,0.00,,,0.00,Wunderground v.1.15,2013-02-14 14:13:00,
2013-02-14 09:18:00,34.5,33.0,29.95,SW,219,3.0,8.0,94,0.00,,,0.00,Wunderground v.1.15,2013-02-14 14:18:00,
2013-02-14 09:23:00,34.6,33.1,29.95,SSW,206,1.0,5.0,94,0.00,,,0.00,Wunderground v.1.15,2013-02-14 14:23:00,
2013-02-14 09:28:00,34.7,33.2,29.95,SSW,213,2.0,7.0,94,0.00,,,0.00,Wunderground v.1.15,2013-02-14 14:28:00,
2013-02-14 09:33:00,34.8,33.2,29.95,SSW,199,3.0,7.0,94,0.00,,,0.00,Wunderground v.1.15,2013-02-14 14:33:00,
2013-02-14 09:38:00,34.9,33.3,29.95,SSW,205,4.0,7.0,94,0.00,,,0.00,Wunderground v.1.15,2013-02-14 14:38:00,
2013-02-14 09:44:00,35.0,33.4,29.95,SSW,192,3.0,7.0,94,0.00,,,0.00,Wunderground v.1.15,2013-02-14 14:44:00,
2013-02-14 09:49:00,35.1,33.5,29.95,SSW,206,2.0,7.0,94,0.00,,,0.00,Wunderground v.1.15,2013-02-14 14:49:00,
2013-02-14 09:54:00,35.2,33.6,29.95,SW,218,3.0,8.0,94,0.00,,,0.00,Wunderground v.1.15,2013-02-14 14:54:00,
2013-02-14 09:59:00,35.3,33.7,29.95,SSW,195,4.0,8.0,94,0.00,,,0.00,Wunderground v.1.15,2013-02-14 14:59:00,
2013-02-14 10:04:00,35.4,33.8,29.95,SSW,211,2.0,5.0,94,0.00,,,0.00,Wunderground v.1.15,2013-02-14 15:04:00,
2013-02-14 10:09:00,35.6,33.8,29.95,SSW,202,5.0,7.0,93,0.00,,,0.00,Wunderground v.1.15,2013-02-14 15:09:00,
2013-02-14 10:14:00,35.8,34.0,29.95,SSW,206,5.0,6.0,93,0.00,,,0.00,Wunderground v.1.15,2013-02-14 15:14:00,
2013-02-14 10:20:00,35.9,34.1,29.95,SW,220,2.0,3.0,93,0.00,,,0.00,Wunderground v.1.15,2013-02-14 15:20:00,
2013-02-14 10:25:00,36.0,34.2,29.95,SW,231,2.0,5.0,93,0.00,,,0.00,Wunderground v.1.15,2013-02-14 15:25:00,
2013-02-14 10:30:00,36.3,34.5,29.95,SSW,206,2.0,3.0,93,0.00,,,0.00,Wunderground v.1.15,2013-02-14 15:30:00,
2013-02-14 10:35:00,36.7,34.9,29.94,SSW,211,2.0,5.0,93,0.00,,,0.00,Wunderground v.1.15,2013-02-14 15:35:00,
2013-02-14 10:40:00,37.0,34.9,29.94,SW,234,6.0,7.0,92,0.00,,,0.00,Wunderground v.1.15,2013-02-14 15:40:00,
2013-02-14 10:45:00,37.2,34.8,29.94,SSW,201,3.0,11.0,91,0.00,,,0.00,Wunderground v.1.15,2013-02-14 15:45:00,
2013-02-14 10:50:00,37.3,34.9,29.94,SW,216,3.0,7.0,91,0.00,,,0.00,Wunderground v.1.15,2013-02-14 15:50:00,
2013-02-14 10:56:00,37.6,35.2,29.94,SW,231,3.0,7.0,91,0.00,,,0.00,Wunderground v.1.15,2013-02-14 15:56:00,
2013-02-14 11:01:00,37.7,35.0,29.93,SSW,201,5.0,10.0,90,0.00,,,0.00,Wunderground v.1.15,2013-02-14 16:01:00,
2013-02-14 11:06:00,37.8,34.8,29.93,SSW,209,7.0,11.0,89,0.00,,,0.00,Wunderground v.1.15,2013-02-14 16:06:00,
2013-02-14 11:11:00,38.2,35.2,29.94,SSW,192,3.0,7.0,89,0.00,,,0.00,Wunderground v.1.15,2013-02-14 16:11:00,
2013-02-14 11:16:00,38.9,35.9,29.93,SW,216,7.0,12.0,89,0.00,,,0.00,Wunderground v.1.15,2013-02-14 16:16:00,
2013-02-14 11:21:00,39.2,35.9,29.93,SSW,211,3.0,6.0,88,0.00,,,0.00,Wunderground v.1.15,2013-02-14 16:21:00,
2013-02-14 11:26:00,39.4,35.9,29.92,SSW,200,2.0,7.0,87,0.00,,,0.00,Wunderground v.1.15,2013-02-14 16:26:00,
2013-02-14 11:31:00,39.6,36.0,29.92,SW,219,2.0,7.0,87,0.00,,,0.00,Wunderground v.1.15,2013-02-14 16:31:00,
2013-02-14 11:36:00,39.8,36.0,29.92,South,181,7.0,9.0,86,0.00,,,0.00,Wunderground v.1.15,2013-02-14 16:36:00,
2013-02-14 11:41:00,40.4,36.5,29.92,SSW,212,7.0,7.0,86,0.00,,,0.00,Wunderground v.1.15,2013-02-14 16:41:00,
2013-02-14 11:46:00,40.6,36.4,29.93,South,170,3.0,10.0,85,0.00,,,0.00,Wunderground v.1.15,2013-02-14 16:46:00,
2013-02-14 11:51:00,40.7,36.2,29.93,SW,227,7.0,8.0,84,0.00,,,0.00,Wunderground v.1.15,2013-02-14 16:51:00,
2013-02-14 11:57:00,41.2,37.0,29.92,SSW,209,4.0,8.0,85,0.00,,,0.00,Wunderground v.1.15,2013-02-14 16:57:00,
2013-02-14 12:02:00,41.5,36.7,29.92,SW,225,8.0,9.0,83,0.00,,,0.00,Wunderground v.1.15,2013-02-14 17:02:00,
2013-02-14 12:07:00,42.0,37.5,29.92,SSW,200,3.0,9.0,84,0.00,,,0.00,Wunderground v.1.15,2013-02-14 17:07:00,
2013-02-14 12:12:00,42.6,37.8,29.92,SW,227,8.0,10.0,83,0.00,,,0.00,Wunderground v.1.15,2013-02-14 17:12:00,
2013-02-14 12:17:00,42.9,37.5,29.92,SW,232,9.0,11.0,81,0.00,,,0.00,Wunderground v.1.15,2013-02-14 17:17:00,
2013-02-14 12:22:00,43.3,37.9,29.92,South,178,4.0,7.0,81,0.00,,,0.00,Wunderground v.1.15,2013-02-14 17:22:00,
2013-02-14 12:27:00,43.7,37.9,29.92,SW,219,9.0,10.0,80,0.00,,,0.00,Wunderground v.1.15,2013-02-14 17:27:00,
2013-02-14 12:32:00,43.8,37.7,29.91,SSW,207,5.0,9.0,79,0.00,,,0.00,Wunderground v.1.15,2013-02-14 17:32:00,
2013-02-14 12:38:00,44.4,38.6,29.91,SSW,207,4.0,9.0,80,0.00,,,0.00,Wunderground v.1.15,2013-02-14 17:38:00,
2013-02-14 12:43:00,44.8,38.4,29.91,SSW,200,7.0,10.0,78,0.00,,,0.00,Wunderground v.1.15,2013-02-14 17:43:00,
2013-02-14 12:48:00,45.0,38.2,29.91,SSW,210,6.0,10.0,77,0.00,,,0.00,Wunderground v.1.15,2013-02-14 17:48:00,
2013-02-14 12:53:00,45.1,38.0,29.91,SSW,197,8.0,12.0,76,0.00,,,0.00,Wunderground v.1.15,2013-02-14 17:53:00,
2013-02-14 12:58:00,45.2,38.1,29.91,SSW,205,4.0,13.0,76,0.00,,,0.00,Wunderground v.1.15,2013-02-14 17:58:00,
2013-02-14 13:04:00,45.4,38.6,29.90,SSW,201,7.0,10.0,77,0.00,,,0.00,Wunderground v.1.15,2013-02-14 18:04:00,
2013-02-14 13:09:00,46.2,39.4,29.90,SSW,201,3.0,10.0,77,0.00,,,0.00,Wunderground v.1.15,2013-02-14 18:09:00,
2013-02-14 13:14:00,46.8,39.3,29.89,SSW,200,5.0,7.0,75,0.00,,,0.00,Wunderground v.1.15,2013-02-14 18:14:00,
2013-02-14 13:19:00,46.9,38.7,29.89,SSW,213,5.0,10.0,73,0.00,,,0.00,Wunderground v.1.15,2013-02-14 18:19:00,
2013-02-14 13:24:00,46.7,39.2,29.89,SSW,203,2.0,6.0,75,0.00,,,0.00,Wunderground v.1.15,2013-02-14 18:24:00,
2013-02-14 13:29:00,47.2,38.6,29.89,WSW,248,3.0,12.0,72,0.00,,,0.00,Wunderground v.1.15,2013-02-14 18:29:00,
2013-02-14 13:35:00,47.3,39.4,29.89,SW,221,8.0,10.0,74,0.00,,,0.00,Wunderground v.1.15,2013-02-14 18:35:00,
2013-02-14 13:40:00,48.0,39.4,29.89,SW,225,3.0,5.0,72,0.00,,,0.00,Wunderground v.1.15,2013-02-14 18:40:00,
2013-02-14 13:45:00,47.8,38.1,29.88,SSW,205,9.0,13.0,69,0.00,,,0.00,Wunderground v.1.15,2013-02-14 18:45:00,
2013-02-14 13:50:00,47.9,39.3,29.88,SW,221,8.0,10.0,72,0.00,,,0.00,Wunderground v.1.15,2013-02-14 18:50:00,
2013-02-14 13:55:00,48.1,38.8,29.88,SSW,208,3.0,13.0,70,0.00,,,0.00,Wunderground v.1.15,2013-02-14 18:55:00,
2013-02-14 14:01:00,48.6,39.3,29.88,South,175,5.0,10.0,70,0.00,,,0.00,Wunderground v.1.15,2013-02-14 19:01:00,
2013-02-14 14:06:00,48.8,39.1,29.88,WSW,240,7.0,11.0,69,0.00,,,0.00,Wunderground v.1.15,2013-02-14 19:06:00,
2013-02-14 14:11:00,49.2,39.5,29.88,SSW,208,1.0,6.0,69,0.00,,,0.00,Wunderground v.1.15,2013-02-14 19:11:00,
2013-02-14 14:16:00,49.7,39.6,29.88,SW,226,9.0,11.0,68,0.00,,,0.00,Wunderground v.1.15,2013-02-14 19:16:00,
2013-02-14 14:21:00,49.7,39.6,29.87,SW,217,7.0,7.0,68,0.00,,,0.00,Wunderground v.1.15,2013-02-14 19:21:00,
2013-02-14 14:26:00,50.1,39.6,29.87,SSW,209,6.0,10.0,67,0.00,,,0.00,Wunderground v.1.15,2013-02-14 19:26:00,
2013-02-14 14:31:00,50.6,39.7,29.87,SW,223,4.0,6.0,66,0.00,,,0.00,Wunderground v.1.15,2013-02-14 19:31:00,
2013-02-14 14:36:00,50.8,39.1,29.87,NW,319,6.0,8.0,64,0.00,,,0.00,Wunderground v.1.15,2013-02-14 19:36:00,
2013-02-14 14:42:00,50.7,39.4,29.87,SW,221,1.0,11.0,65,0.00,,,0.00,Wunderground v.1.15,2013-02-14 19:42:00,
2013-02-14 14:47:00,51.2,39.4,29.87,SW,221,1.0,11.0,64,0.00,,,0.00,Wunderground v.1.15,2013-02-14 19:47:00,
2013-02-14 14:52:00,51.6,39.4,29.87,SW,215,10.0,12.0,63,0.00,,,0.00,Wunderground v.1.15,2013-02-14 19:52:00,
2013-02-14 14:57:00,51.4,39.6,29.87,SSW,196,7.0,12.0,64,0.00,,,0.00,Wunderground v.1.15,2013-02-14 19:57:00,
2013-02-14 15:02:00,51.7,38.7,29.87,SW,220,4.0,10.0,61,0.00,,,0.00,Wunderground v.1.15,2013-02-14 20:02:00,
2013-02-14 15:07:00,51.7,38.7,29.87,SSW,210,6.0,10.0,61,0.00,,,0.00,Wunderground v.1.15,2013-02-14 20:07:00,
2013-02-14 15:13:00,51.6,38.6,29.87,WSW,255,2.0,9.0,61,0.00,,,0.00,Wunderground v.1.15,2013-02-14 20:13:00,
2013-02-14 15:18:00,51.6,37.7,29.87,SW,224,11.0,11.0,59,0.00,,,0.00,Wunderground v.1.15,2013-02-14 20:18:00,
2013-02-14 15:23:00,51.7,37.8,29.87,SW,222,6.0,10.0,59,0.00,,,0.00,Wunderground v.1.15,2013-02-14 20:23:00,
2013-02-14 15:28:00,51.8,38.3,29.87,SW,220,4.0,12.0,60,0.00,,,0.00,Wunderground v.1.15,2013-02-14 20:28:00,
2013-02-14 15:33:00,51.9,38.0,29.87,West,260,4.0,11.0,59,0.00,,,0.00,Wunderground v.1.15,2013-02-14 20:33:00,
2013-02-14 15:38:00,52.3,37.5,29.87,WSW,241,6.0,11.0,57,0.00,,,0.00,Wunderground v.1.15,2013-02-14 20:38:00,
2013-02-14 15:43:00,52.5,37.2,29.87,WSW,254,5.0,10.0,56,0.00,,,0.00,Wunderground v.1.15,2013-02-14 20:43:00,
2013-02-14 16:14:00,51.9,38.0,29.88,WSW,250,5.0,5.0,59,0.00,,,0.00,Wunderground v.1.15,2013-02-14 21:14:00,
2013-02-14 16:19:00,51.6,37.3,29.88,West,275,6.0,16.0,58,0.00,,,0.00,Wunderground v.1.15,2013-02-14 21:19:00,
2013-02-14 16:24:00,51.4,37.5,29.89,West,271,7.0,10.0,59,0.00,,,0.00,Wunderground v.1.15,2013-02-14 21:24:00,
2013-02-14 16:29:00,51.3,37.9,29.89,SW,227,4.0,10.0,60,0.00,,,0.00,Wunderground v.1.15,2013-02-14 21:29:00,
2013-02-14 16:35:00,51.2,38.2,29.89,SW,222,4.0,6.0,61,0.00,,,0.00,Wunderground v.1.15,2013-02-14 21:35:00,
2013-02-14 16:40:00,51.1,38.1,29.89,SW,231,4.0,9.0,61,0.00,,,0.00,Wunderground v.1.15,2013-02-14 21:40:00,
2013-02-14 16:45:00,51.2,37.8,29.89,West,272,2.0,6.0,60,0.00,,,0.00,Wunderground v.1.15,2013-02-14 21:45:00,
2013-02-14 16:50:00,51.2,38.2,29.89,SW,223,2.0,7.0,61,0.00,,,0.00,Wunderground v.1.15,2013-02-14 21:50:00,
2013-02-14 16:55:00,51.1,38.1,29.89,WSW,240,9.0,9.0,61,0.00,,,0.00,Wunderground v.1.15,2013-02-14 21:55:00,
2013-02-14 17:01:00,51.1,37.3,29.90,WSW,240,4.0,4.0,59,0.00,,,0.00,Wunderground v.1.15,2013-02-14 22:01:00,
2013-02-14 17:06:00,51.2,36.5,29.90,SW,228,5.0,16.0,57,0.00,,,0.00,Wunderground v.1.15,2013-02-14 22:06:00,
2013-02-14 17:11:00,51.3,37.0,29.90,WSW,258,8.0,10.0,58,0.00,,,0.00,Wunderground v.1.15,2013-02-14 22:11:00,
2013-02-14 17:16:00,51.3,37.0,29.90,West,259,5.0,12.0,58,0.00,,,0.00,Wunderground v.1.15,2013-02-14 22:16:00,
2013-02-14 17:21:00,51.6,36.9,29.91,WSW,251,14.0,16.0,57,0.00,,,0.00,Wunderground v.1.15,2013-02-14 22:21:00,
2013-02-14 17:26:00,51.3,35.7,29.91,WNW,298,14.0,16.0,55,0.00,,,0.00,Wunderground v.1.15,2013-02-14 22:26:00,
2013-02-14 17:31:00,51.3,35.7,29.91,WSW,240,5.0,13.0,55,0.00,,,0.00,Wunderground v.1.15,2013-02-14 22:31:00,
2013-02-14 17:36:00,51.2,35.6,29.91,WSW,246,4.0,14.0,55,0.00,,,0.00,Wunderground v.1.15,2013-02-14 22:36:00,
2013-02-14 17:42:00,50.9,35.7,29.91,West,267,6.0,13.0,56,0.00,,,0.00,Wunderground v.1.15,2013-02-14 22:42:00,
2013-02-14 17:47:00,50.6,35.9,29.92,WNW,286,6.0,13.0,57,0.00,,,0.00,Wunderground v.1.15,2013-02-14 22:47:00,
2013-02-14 17:52:00,50.3,36.1,29.92,West,273,6.0,11.0,58,0.00,,,0.00,Wunderground v.1.15,2013-02-14 22:52:00,
2013-02-14 17:57:00,50.0,35.8,29.92,WSW,254,5.0,11.0,58,0.00,,,0.00,Wunderground v.1.15,2013-02-14 22:57:00,
2013-02-14 18:03:00,49.6,35.8,29.92,West,263,7.0,9.0,59,0.00,,,0.00,Wunderground v.1.15,2013-02-14 23:03:00,
2013-02-14 18:08:00,49.4,35.7,29.93,West,262,5.0,11.0,59,0.00,,,0.00,Wunderground v.1.15,2013-02-14 23:08:00,
2013-02-14 18:13:00,49.3,36.0,29.93,West,267,4.0,11.0,60,0.00,,,0.00,Wunderground v.1.15,2013-02-14 23:13:00,
2013-02-14 18:18:00,49.0,36.1,29.93,WSW,241,4.0,11.0,61,0.00,,,0.00,Wunderground v.1.15,2013-02-14 23:18:00,
2013-02-14 18:23:00,48.7,35.8,29.93,WSW,257,3.0,10.0,61,0.00,,,0.00,Wunderground v.1.15,2013-02-14 23:23:00,
2013-02-14 18:28:00,48.5,36.1,29.93,SW,232,2.0,10.0,62,0.00,,,0.00,Wunderground v.1.15,2013-02-14 23:28:00,
2013-02-14 18:34:00,48.3,36.3,29.94,West,265,3.0,5.0,63,0.00,,,0.00,Wunderground v.1.15,2013-02-14 23:34:00,
2013-02-14 18:39:00,48.1,36.1,29.94,West,259,3.0,6.0,63,0.00,,,0.00,Wunderground v.1.15,2013-02-14 23:39:00,
2013-02-14 18:44:00,47.9,36.3,29.94,West,261,3.0,5.0,64,0.00,,,0.00,Wunderground v.1.15,2013-02-14 23:44:00,
2013-02-14 18:49:00,47.8,36.2,29.94,West,262,3.0,6.0,64,0.00,,,0.00,Wunderground v.1.15,2013-02-14 23:49:00,
2013-02-14 18:54:00,47.6,36.0,29.95,WSW,257,4.0,5.0,64,0.00,,,0.00,Wunderground v.1.15,2013-02-14 23:54:00,
2013-02-14 18:59:00,47.3,36.1,29.95,WSW,252,1.0,5.0,65,0.00,,,0.00,Wunderground v.1.15,2013-02-14 23:59:00,
2013-02-14 19:04:00,47.1,35.9,29.95,West,265,3.0,8.0,65,0.00,,,0.00,Wunderground v.1.15,2013-02-15 00:04:00,
2013-02-14 19:09:00,47.0,35.8,29.95,SW,227,4.0,8.0,65,0.00,,,0.00,Wunderground v.1.15,2013-02-15 00:09:00,
2013-02-14 19:14:00,47.0,35.8,29.95,West,271,2.0,5.0,65,0.00,,,0.00,Wunderground v.1.15,2013-02-15 00:14:00,
2013-02-14 19:19:00,46.8,35.6,29.96,WSW,254,4.0,7.0,65,0.00,,,0.00,Wunderground v.1.15,2013-02-15 00:19:00,
2013-02-14 19:24:00,46.7,35.6,29.96,West,266,0.0,6.0,65,0.00,,,0.00,Wunderground v.1.15,2013-02-15 00:24:00,
2013-02-14 19:30:00,46.5,35.4,29.96,WSW,255,3.0,3.0,65,0.00,,,0.00,Wunderground v.1.15,2013-02-15 00:30:00,
2013-02-14 19:35:00,46.3,35.6,29.96,West,259,1.0,4.0,66,0.00,,,0.00,Wunderground v.1.15,2013-02-15 00:35:00,
2013-02-14 19:40:00,46.1,35.4,29.96,WSW,240,3.0,3.0,66,0.00,,,0.00,Wunderground v.1.15,2013-02-15 00:40:00,
2013-02-14 19:45:00,45.9,35.2,29.96,WSW,244,0.0,3.0,66,0.00,,,0.00,Wunderground v.1.15,2013-02-15 00:45:00,
2013-02-14 19:50:00,45.7,35.4,29.96,WSW,248,2.0,2.0,67,0.00,,,0.00,Wunderground v.1.15,2013-02-15 00:50:00,
2013-02-14 19:55:00,45.5,35.2,29.97,WSW,239,4.0,4.0,67,0.00,,,0.00,Wunderground v.1.15,2013-02-15 00:55:00,
2013-02-14 20:00:00,45.3,35.0,29.96,WSW,239,0.0,1.0,67,0.00,,,0.00,Wunderground v.1.15,2013-02-15 01:00:00,
2013-02-14 20:05:00,45.1,35.2,29.97,WSW,239,0.0,2.0,68,0.00,,,0.00,Wunderground v.1.15,2013-02-15 01:05:00,
2013-02-14 20:10:00,44.8,34.9,29.97,WSW,239,1.0,2.0,68,0.00,,,0.00,Wunderground v.1.15,2013-02-15 01:10:00,
2013-02-14 20:15:00,44.6,35.1,29.97,WSW,239,0.0,2.0,69,0.00,,,0.00,Wunderground v.1.15,2013-02-15 01:15:00,
2013-02-14 20:20:00,44.5,35.0,29.97,WSW,240,1.0,1.0,69,0.00,,,0.00,Wunderground v.1.15,2013-02-15 01:20:00,
2013-02-14 20:25:00,44.4,34.9,29.97,WSW,242,3.0,3.0,69,0.00,,,0.00,Wunderground v.1.15,2013-02-15 01:25:00,
2013-02-14 20:30:00,44.5,35.0,29.97,WSW,246,0.0,2.0,69,0.00,,,0.00,Wunderground v.1.15,2013-02-15 01:30:00,
2013-02-14 20:35:00,44.5,35.0,29.97,WSW,254,3.0,6.0,69,0.00,,,0.00,Wunderground v.1.15,2013-02-15 01:35:00,
2013-02-14 20:40:00,44.5,35.0,29.97,WSW,250,2.0,3.0,69,0.00,,,0.00,Wunderground v.1.15,2013-02-15 01:40:00,
2013-02-14 20:45:00,44.5,35.0,29.98,WSW,258,3.0,4.0,69,0.00,,,0.00,Wunderground v.1.15,2013-02-15 01:45:00,
2013-02-14 20:50:00,44.6,35.1,29.98,West,278,3.0,3.0,69,0.00,,,0.00,Wunderground v.1.15,2013-02-15 01:50:00,
2013-02-14 20:55:00,44.8,35.2,29.98,WNW,286,2.0,6.0,69,0.00,,,0.00,Wunderground v.1.15,2013-02-15 01:55:00,
2013-02-14 21:00:00,44.8,35.2,29.99,NNW,339,8.0,9.0,69,0.00,,,0.00,Wunderground v.1.15,2013-02-15 02:00:00,
2013-02-14 21:05:00,44.7,35.1,29.99,West,263,2.0,9.0,69,0.00,,,0.00,Wunderground v.1.15,2013-02-15 02:05:00,
2013-02-14 21:11:00,44.4,34.9,30.00,NW,313,4.0,8.0,69,0.00,,,0.00,Wunderground v.1.15,2013-02-15 02:11:00,
2013-02-14 21:16:00,44.1,34.9,30.00,NNE,24,4.0,8.0,70,0.00,,,0.00,Wunderground v.1.15,2013-02-15 02:16:00,
2013-02-14 21:21:00,43.8,35.0,30.00,NW,304,5.0,6.0,71,0.00,,,0.00,Wunderground v.1.15,2013-02-15 02:21:00,
2013-02-14 21:26:00,43.4,34.6,30.00,WNW,296,2.0,6.0,71,0.00,,,0.00,Wunderground v.1.15,2013-02-15 02:26:00,
2013-02-14 21:31:00,43.1,34.7,30.00,WNW,282,3.0,5.0,72,0.00,,,0.00,Wunderground v.1.15,2013-02-15 02:31:00,
2013-02-14 21:36:00,42.8,34.4,30.01,NNW,334,6.0,8.0,72,0.00,,,0.00,Wunderground v.1.15,2013-02-15 02:36:00,
2013-02-14 21:41:00,42.5,34.1,30.01,North,5,4.0,7.0,72,0.00,,,0.00,Wunderground v.1.15,2013-02-15 02:41:00,
2013-02-14 21:46:00,42.2,33.8,30.01,NW,309,3.0,11.0,72,0.00,,,0.00,Wunderground v.1.15,2013-02-15 02:46:00,
2013-02-14 21:51:00,42.0,33.6,30.01,WNW,300,7.0,10.0,72,0.00,,,0.00,Wunderground v.1.15,2013-02-15 02:51:00,
2013-02-14 21:57:00,41.8,33.4,30.01,West,270,5.0,10.0,72,0.00,,,0.00,Wunderground v.1.15,2013-02-15 02:57:00,
2013-02-14 22:02:00,41.6,33.2,30.01,NW,304,3.0,7.0,72,0.00,,,0.00,Wunderground v.1.15,2013-02-15 03:02:00,
2013-02-14 22:07:00,41.4,33.4,30.02,NW,313,5.0,9.0,73,0.00,,,0.00,Wunderground v.1.15,2013-02-15 03:07:00,
2013-02-14 22:12:00,41.1,33.1,30.02,NW,316,2.0,4.0,73,0.00,,,0.00,Wunderground v.1.15,2013-02-15 03:12:00,
2013-02-14 22:17:00,41.0,33.3,30.02,West,279,2.0,5.0,74,0.00,,,0.00,Wunderground v.1.15,2013-02-15 03:17:00,
2013-02-14 22:22:00,41.0,33.3,30.02,West,279,4.0,6.0,74,0.00,,,0.00,Wunderground v.1.15,2013-02-15 03:22:00,
2013-02-14 22:27:00,41.0,33.3,30.02,WNW,298,3.0,6.0,74,0.00,,,0.00,Wunderground v.1.15,2013-02-15 03:27:00,
2013-02-14 22:32:00,40.9,33.2,30.02,NW,323,0.0,7.0,74,0.00,,,0.00,Wunderground v.1.15,2013-02-15 03:32:00,
2013-02-14 22:38:00,40.8,33.2,30.03,WNW,288,1.0,11.0,74,0.00,,,0.00,Wunderground v.1.15,2013-02-15 03:38:00,
2013-02-14 22:43:00,40.7,33.1,30.03,WSW,251,6.0,11.0,74,0.00,,,0.00,Wunderground v.1.15,2013-02-15 03:43:00,
2013-02-14 22:49:00,40.4,32.8,30.03,WNW,296,4.0,11.0,74,0.00,,,0.00,Wunderground v.1.15,2013-02-15 03:49:00,
2013-02-14 22:54:00,40.2,32.9,30.03,NNW,333,0.0,4.0,75,0.00,,,0.00,Wunderground v.1.15,2013-02-15 03:54:00,
2013-02-14 22:59:00,39.8,32.5,30.04,NW,310,0.0,4.0,75,0.00,,,0.00,Wunderground v.1.15,2013-02-15 03:59:00,
2013-02-14 23:04:00,39.5,32.6,30.04,WNW,283,1.0,3.0,76,0.00,,,0.00,Wunderground v.1.15,2013-02-15 04:04:00,
2013-02-14 23:09:00,39.3,32.7,30.03,NNE,33,5.0,6.0,77,0.00,,,0.00,Wunderground v.1.15,2013-02-15 04:09:00,
2013-02-14 23:14:00,39.1,32.5,30.04,NNW,335,0.0,3.0,77,0.00,,,0.00,Wunderground v.1.15,2013-02-15 04:14:00,
2013-02-14 23:19:00,39.0,32.4,30.03,NW,325,3.0,3.0,77,0.00,,,0.00,Wunderground v.1.15,2013-02-15 04:19:00,
2013-02-14 23:24:00,38.9,32.3,30.03,West,263,5.0,5.0,77,0.00,,,0.00,Wunderground v.1.15,2013-02-15 04:24:00,
2013-02-14 23:29:00,38.8,31.9,30.04,WNW,300,5.0,6.0,76,0.00,,,0.00,Wunderground v.1.15,2013-02-15 04:29:00,
2013-02-14 23:35:00,38.7,31.5,30.04,NNW,345,5.0,7.0,75,0.00,,,0.00,Wunderground v.1.15,2013-02-15 04:35:00,
2013-02-14 23:40:00,38.6,31.4,30.04,WNW,300,1.0,2.0,75,0.00,,,0.00,Wunderground v.1.15,2013-02-15 04:40:00,
2013-02-14 23:45:00,38.4,31.2,30.03,West,271,0.0,5.0,75,0.00,,,0.00,Wunderground v.1.15,2013-02-15 04:45:00,
2013-02-14 23:50:00,38.2,31.0,30.04,West,271,0.0,2.0,75,0.00,,,0.00,Wunderground v.1.15,2013-02-15 04:50:00,
2013-02-14 23:55:00,37.9,30.7,30.03,WNW,287,0.0,2.0,75,0.00,,,0.00,Wunderground v.1.15,2013-02-15 04:55:00,